• Join FlightAware (Why Join?)
  • Login
  • US Flag 
06:45AM EDT


 

Airport Tracker/Info


-or-


 

Live Flight TrackerFlight Track Log ✈ SWA59 ✈ 24-Apr-2013 ✈ KPHL - KSTL

Flight Track Log - Related Links

Times and Time Zones

All times are in EDT time to prevent confusion due to time zone crossing. See the SWA59 flight status page for this flight to view local times or setup timezone preferences in your user account.

Time Position Orientation Groundspeed Altitude Reporting Facility
EDT Latitude Longitude Course Direction KTS MPH feet Rate Location/Type
05:13PM 39.8619 -75.2686 259° West 159 183 700  Level FAA TRACON SMA TRACON (SMA)
05:14PM 39.8594 -75.2847 259° West 162 186 1,400 1,980 Climbing FAA TRACON SMA TRACON (SMA)
05:14PM 39.8569 -75.3042 260° West 168 193 2,000 3,000 Climbing FAA TRACON SMA TRACON (SMA)
05:14PM 39.8531 -75.3339 260° West 210 242 3,400 3,420 Climbing FAA TRACON SMA TRACON (SMA)
05:15PM 39.8508 -75.3575 263° West 213 245 4,300 3,000 Climbing FAA TRACON SMA TRACON (SMA)
05:15PM 39.8506 -75.3836 269° West 244 281 5,400 3,600 Climbing FAA TRACON SMA TRACON (SMA)
05:15PM 39.8592 -75.4172 288° West 260 299 6,700 3,720 Climbing FAA TRACON SMA TRACON (SMA)
05:16PM 39.8653 -75.4444 286° West 257 296 7,900 4,020 Climbing FAA TRACON SMA TRACON (SMA)
05:16PM 39.8731 -75.4767 287° West 250 288 9,400 2,040 Climbing FAA TRACON SMA TRACON (SMA)
05:17PM 39.8856 -75.5319 286° West 255 293 10,000 600 Climbing FAA TRACON SMA TRACON (SMA)
05:17PM 39.8931 -75.5647 287° West 317 365 10,000 -180 Level FAA TRACON SMA TRACON (SMA)
05:17PM 39.9028 -75.6069 287° West 329 379 9,900 300 Descending FAA TRACON SMA TRACON (SMA)
05:18PM 39.9119 -75.6422 289° West 325 374 10,200 1,920 Climbing FAA TRACON SMA TRACON (SMA)
05:18PM 39.9167 -75.6775 280° West 317 365 11,200 3,480 Climbing FAA TRACON SMA TRACON (SMA)
05:18PM 39.9172 -75.7214 271° West 323 372 12,600 3,480 Climbing FAA TRACON SMA TRACON (SMA)
05:19PM 39.9169 -75.7578 269° West 320 368 13,600 3,420 Climbing FAA TRACON SMA TRACON (SMA)
05:19PM 39.9158 -75.8039 268° West 327 376 14,900 3,180 Climbing FAA TRACON SMA TRACON (SMA)
05:19PM 39.9153 -75.8397 269° West 331 381 15,700 2,460 Climbing FAA TRACON SMA TRACON (SMA)
05:20PM 39.9142 -75.8786 268° West 335 386 16,500 2,220 Climbing FAA TRACON SMA TRACON (SMA)
05:20PM 39.9133 -75.9175 268° West 352 405 17,200 1,020 Climbing FAA TRACON SMA TRACON (SMA)
05:20PM 39.9133 -75.9175 360° North 352 405 17,200 2,460 Level FAA TRACON SMA TRACON (SMA)
05:22PM 39.9103 -76.1808 269° West 367 422 22,200 2,640 Climbing New York Center
05:23PM 39.9119 -76.3244 271° West 389 448 24,400 1,980 Climbing New York Center
05:24PM 39.9175 -76.4683 273° West 399 459 26,200 1,560 Climbing New York Center
05:25PM 39.9250 -76.6153 274° West 406 467 27,600 1,380 Climbing New York Center
05:26PM 39.9294 -76.7728 272° West 426 490 29,100 1,860 Climbing New York Center
05:27PM 39.9342 -76.9247 272° West 426 490 31,300 2,160 Climbing New York Center
05:28PM 39.9431 -77.0744 274° West 426 490 33,400 1,980 Climbing New York Center
05:29PM 39.9478 -77.2183 272° West 413 475 35,400 1,680 Climbing New York Center
05:30PM 39.9525 -77.3572 273° West 401 461 36,800 960 Climbing New York Center
05:32PM 39.9608 -77.5764 273° West 377 434 38,000 420 Climbing Cleveland Center
05:33PM 39.9664 -77.7117 273° West 377 434 38,000  Level Cleveland Center
05:34PM 39.9719 -77.8522 273° West 382 440 38,000  Level Cleveland Center
05:35PM 39.9750 -77.9878 272° West 382 440 38,000  Level Cleveland Center
05:36PM 39.9781 -78.1203 272° West 382 440 38,000  Level Cleveland Center
05:37PM 39.9828 -78.2531 273° West 382 440 38,000  Level Cleveland Center
05:38PM 39.9817 -78.3994 269° West 376 433 38,000  Level Cleveland Center
05:39PM 39.9842 -78.5319 271° West 376 433 38,000  Level Cleveland Center
05:40PM 39.9864 -78.6619 271° West 371 427 38,000  Level Cleveland Center
05:41PM 39.9886 -78.7947 271° West 366 421 38,000  Level Cleveland Center
05:42PM 39.9922 -78.9111 272° West 366 421 38,000  Level Cleveland Center
05:43PM 40.0006 -79.0383 275° West 366 421 38,000  Level Cleveland Center
05:44PM 40.0019 -79.1631 271° West 361 415 38,000  Level Cleveland Center
05:45PM 40.0036 -79.2903 271° West 361 415 38,000  Level Cleveland Center
05:46PM 40.0050 -79.4150 271° West 356 410 38,000  Level Cleveland Center
05:47PM 40.0061 -79.5394 271° West 356 410 38,000  Level Cleveland Center
05:48PM 40.0092 -79.6669 272° West 351 404 38,000  Level Cleveland Center
05:49PM 40.0103 -79.7889 271° West 346 398 38,000  Level Cleveland Center
05:50PM 40.0131 -79.9244 272° West 346 398 38,000  Level Cleveland Center
05:51PM 40.0139 -80.0492 271° West 346 398 38,000  Level Cleveland Center
05:52PM 40.0164 -80.1711 272° West 346 398 38,000  Level Cleveland Center
05:53PM 40.0167 -80.2903 270° West 346 398 38,000  Level Cleveland Center
05:54PM 40.0169 -80.4094 270° West 346 398 38,000  Level Cleveland Center
05:55PM 40.0172 -80.5289 270° West 341 392 38,000  Level Cleveland Center
05:56PM 40.0192 -80.6453 271° West 336 387 38,000  Level Cleveland Center
05:57PM 40.0192 -80.7647 270° West 331 381 38,000  Level Cleveland Center
05:59PM 40.0150 -80.9678 269° West 330 380 38,000  Level Indianapolis Center
06:00PM 40.0125 -81.0914 269° West 335 386 38,000  Level Indianapolis Center
06:01PM 40.0106 -81.2200 269° West 346 398 38,000  Level Indianapolis Center
06:02PM 40.0078 -81.3681 269° West 347 399 38,000  Level Indianapolis Center
06:03PM 40.0058 -81.5017 269° West 363 418 38,000  Level Indianapolis Center
06:04PM 40.0019 -81.6331 268° West 361 415 38,000  Level Indianapolis Center
06:05PM 40.0003 -81.7661 269° West 364 419 38,000  Level Indianapolis Center
06:06PM 39.9967 -81.8969 268° West 364 419 38,000  Level Indianapolis Center
06:07PM 39.9942 -82.0303 269° West 365 420 38,000  Level Indianapolis Center
06:08PM 39.9914 -82.1631 268° West 364 419 38,000  Level Indianapolis Center
06:09PM 39.9878 -82.3139 268° West 355 409 38,000  Level Indianapolis Center
06:10PM 39.9833 -82.4422 267° West 352 405 38,000  Level Indianapolis Center
06:11PM 39.9800 -82.5714 268° West 352 405 38,000  Level Indianapolis Center
06:12PM 39.9764 -82.6994 268° West 352 405 38,000  Level Indianapolis Center
06:13PM 39.9719 -82.8267 267° West 348 400 38,000  Level Indianapolis Center
06:14PM 39.9689 -82.9528 268° West 347 399 38,000  Level Indianapolis Center
06:15PM 39.9644 -83.0775 267° West 343 395 38,000  Level Indianapolis Center
06:16PM 39.9631 -83.2239 269° West 345 397 38,000  Level Indianapolis Center
06:17PM 39.9578 -83.3500 267° West 347 399 38,000  Level Indianapolis Center
06:18PM 39.9533 -83.4744 267° West 348 400 38,000  Level Indianapolis Center
06:19PM 39.9481 -83.5997 267° West 350 403 38,000  Level Indianapolis Center
06:20PM 39.9436 -83.7256 267° West 349 402 38,000  Level Indianapolis Center
06:21PM 39.9381 -83.8728 267° West 348 400 38,000  Level Indianapolis Center
06:22PM 39.9331 -83.9986 267° West 346 398 38,000  Level Indianapolis Center
06:23PM 39.9283 -84.1236 267° West 344 396 38,000  Level Indianapolis Center
06:24PM 39.9222 -84.2489 266° West 344 396 38,000  Level Indianapolis Center
06:25PM 39.9189 -84.3747 268° West 345 397 38,000  Level Indianapolis Center
06:26PM 39.9128 -84.4994 266° West 344 396 38,000  Level Indianapolis Center
06:27PM 39.9056 -84.6236 266° West 342 394 38,000  Level Indianapolis Center
06:29PM 39.8994 -84.7686 267° West 342 394 38,000  Level Indianapolis Center
06:30PM 39.8928 -84.8939 266° West 345 397 38,000  Level Indianapolis Center
06:31PM 39.8747 -85.0108 259° West 345 397 38,000  Level Indianapolis Center
06:32PM 39.8569 -85.1339 259° West 345 397 38,000  Level Indianapolis Center
06:33PM 39.8358 -85.2789 259° West 348 400 38,000  Level Indianapolis Center
06:34PM 39.8178 -85.4025 259° West 348 400 38,000  Level Indianapolis Center
06:35PM 39.7992 -85.5247 259° West 344 396 38,000  Level Indianapolis Center
06:36PM 39.7806 -85.6472 259° West 343 395 38,000  Level Indianapolis Center
06:37PM 39.7622 -85.7703 259° West 345 397 38,000  Level Indianapolis Center
06:38PM 39.7436 -85.8908 259° West 341 392 38,000  Level Indianapolis Center
06:39PM 39.7250 -86.0122 259° West 341 392 38,000  Level Indianapolis Center
06:40PM 39.7031 -86.1528 259° West 337 388 38,000  Level Indianapolis Center
06:41PM 39.6839 -86.2722 258° West 339 390 38,000  Level Indianapolis Center
06:42PM 39.6636 -86.4033 259° West 343 395 38,000  Level Indianapolis Center
06:43PM 39.6447 -86.5256 259° West 343 395 38,000 -480 Level Indianapolis Center
06:44PM 39.6244 -86.6486 258° West 345 397 37,100 -960 Descending Indianapolis Center
06:45PM 39.6053 -86.7694 258° West 341 392 36,100 -960 Descending Indianapolis Center
06:46PM 39.5864 -86.8889 258° West 338 389 35,100 -1,020 Descending Indianapolis Center
06:47PM 39.5675 -87.0000 258° West 319 367 34,000 -1,020 Descending Indianapolis Center
06:48PM 39.5506 -87.1058 258° West 301 346 33,000 -1,020 Descending Indianapolis Center
06:49PM 39.5311 -87.2247 258° West 291 335 31,900 -1,020 Descending Indianapolis Center
06:50PM 39.5128 -87.3311 257° West 300 345 30,900 -960 Descending Indianapolis Center
06:51PM 39.4936 -87.4394 257° West 308 354 30,000 -480 Descending Indianapolis Center
06:52PM 39.4767 -87.5472 259° West 305 351 30,000  Level Indianapolis Center
06:53PM 39.4583 -87.6553 258° West 305 351 30,000  Level Indianapolis Center
06:54PM 39.4403 -87.7625 258° West 305 351 30,000  Level Indianapolis Center
06:55PM 39.4214 -87.8694 257° West 303 349 30,000 -60 Level Indianapolis Center
06:56PM 39.4089 -87.9433 258° West 303 349 29,900 -1,260 Descending Kansas City Center
06:57PM 39.3914 -88.0489 258° West 302 348 28,000 -960 Descending Kansas City Center
06:58PM 39.3650 -88.1503 251° West 296 341 28,000  Level Kansas City Center
06:59PM 39.3381 -88.2564 252° West 306 352 28,000  Level Kansas City Center
07:00PM 39.3103 -88.3581 251° West 302 348 28,000  Level Kansas City Center
07:01PM 39.2781 -88.4806 251° West 300 345 28,000  Level Kansas City Center
07:02PM 39.2494 -88.5842 250° West 304 350 28,000  Level Kansas City Center
07:03PM 39.2214 -88.6906 251° West 303 349 28,000  Level Kansas City Center
07:04PM 39.1931 -88.7947 251° West 306 352 28,000 -720 Level Kansas City Center
07:05PM 39.1653 -88.8953 250° West 301 346 26,600 -1,740 Descending Kansas City Center
07:06PM 39.1367 -89.0047 251° West 289 333 24,400 -2,040 Descending Kansas City Center
07:07PM 39.1114 -89.0961 250° West 273 314 22,500 -1,980 Descending Kansas City Center
07:08PM 39.0847 -89.1953 251° West 274 315 20,300 -2,040 Descending Kansas City Center
07:09PM 39.0786 -89.1753 111° Southeast 285 328 19,600 -1,800 Descending FAA TRACON SMA TRACON (SMA)
07:09PM 39.0694 -89.2119 252° West 282 325 18,900 -2,040 Descending FAA TRACON SMA TRACON (SMA)
07:10PM 39.0603 -89.2494 253° West 287 330 18,100 -2,040 Descending FAA TRACON SMA TRACON (SMA)
07:10PM 39.0464 -89.3119 254° West 296 341 17,000 -1,980 Descending FAA TRACON SMA TRACON (SMA)
07:10PM 39.0364 -89.3417 247° West 295 339 16,300 -2,280 Descending FAA TRACON SMA TRACON (SMA)
07:11PM 39.0297 -89.3817 258° West 297 342 15,500 -2,100 Descending FAA TRACON SMA TRACON (SMA)
07:11PM 39.0219 -89.4125 252° West 296 341 14,900 -1,980 Descending FAA TRACON SMA TRACON (SMA)
07:11PM 39.0128 -89.4436 249° West 300 345 14,200 -1,980 Descending FAA TRACON SMA TRACON (SMA)
07:12PM 39.0067 -89.4761 256° West 302 348 13,600 -2,100 Descending FAA TRACON SMA TRACON (SMA)
07:12PM 38.9978 -89.5161 254° West 302 348 12,800 -2,340 Descending FAA TRACON SMA TRACON (SMA)
07:12PM 38.9856 -89.5453 242° Southwest 303 349 12,100 -2,040 Descending FAA TRACON SMA TRACON (SMA)
07:13PM 38.9664 -89.5697 225° Southwest 310 357 11,500 -2,220 Descending FAA TRACON SMA TRACON (SMA)
07:13PM 38.9436 -89.6006 226° Southwest 312 359 10,600 -2,280 Descending FAA TRACON SMA TRACON (SMA)
07:13PM 38.9247 -89.6244 225° Southwest 312 359 10,000 -1,080 Descending FAA TRACON SMA TRACON (SMA)
07:14PM 38.9053 -89.6472 222° Southwest 311 358 9,900  Descending FAA TRACON SMA TRACON (SMA)
07:14PM 38.8844 -89.6744 225° Southwest 289 333 10,000  Climbing FAA TRACON SMA TRACON (SMA)
07:14PM 38.8675 -89.6953 224° Southwest 274 315 9,900 -780 Descending FAA TRACON SMA TRACON (SMA)
07:15PM 38.8511 -89.7158 224° Southwest 266 306 9,500 -1,380 Descending FAA TRACON SMA TRACON (SMA)
07:15PM 38.8308 -89.7408 224° Southwest 264 304 9,000 -1,440 Descending FAA TRACON SMA TRACON (SMA)
07:15PM 38.8150 -89.7611 225° Southwest 263 303 8,600 -1,260 Descending FAA TRACON SMA TRACON (SMA)
07:16PM 38.7989 -89.7811 224° Southwest 262 302 8,200 -1,080 Descending FAA TRACON SMA TRACON (SMA)
07:16PM 38.7797 -89.8050 224° Southwest 256 295 7,900 -1,080 Descending FAA TRACON SMA TRACON (SMA)
07:16PM 38.7642 -89.8242 224° Southwest 251 289 7,500 -1,440 Descending FAA TRACON SMA TRACON (SMA)
07:17PM 38.7475 -89.8439 223° Southwest 255 293 7,000 -1,500 Descending FAA TRACON SMA TRACON (SMA)
07:17PM 38.7289 -89.8692 227° Southwest 256 295 6,500 -1,320 Descending FAA TRACON SMA TRACON (SMA)
07:17PM 38.7131 -89.8883 223° Southwest 257 296 6,100 -1,380 Descending FAA TRACON SMA TRACON (SMA)
07:18PM 38.6978 -89.9086 226° Southwest 257 296 5,600 -1,620 Descending FAA TRACON SMA TRACON (SMA)
07:18PM 38.6797 -89.9342 228° Southwest 253 291 5,000 -900 Descending FAA TRACON SMA TRACON (SMA)
07:19PM 38.6647 -89.9544 227° Southwest 253 291 5,000 -480 Level FAA TRACON SMA TRACON (SMA)
07:19PM 38.6475 -89.9786 228° Southwest 243 280 4,700 -1,080 Descending FAA TRACON SMA TRACON (SMA)
07:19PM 38.6344 -89.9972 228° Southwest 232 267 4,300 -1,200 Descending FAA TRACON SMA TRACON (SMA)
07:20PM 38.6272 -90.0208 249° West 239 275 3,900 -1,140 Descending FAA TRACON SMA TRACON (SMA)
07:20PM 38.6275 -90.0522 271° West 232 267 3,500 -660 Descending FAA TRACON SMA TRACON (SMA)
07:20PM 38.6275 -90.0764 270° West 225 259 3,500 -180 Level FAA TRACON SMA TRACON (SMA)
07:20PM 38.6353 -90.0967 296° West 221 254 3,400  Descending FAA TRACON SMA TRACON (SMA)
07:21PM 38.6475 -90.1119 316° Northwest 208 239 3,500 -180 Climbing FAA TRACON SMA TRACON (SMA)
07:21PM 38.6578 -90.1319 303° West 180 207 3,300 -600 Descending FAA TRACON SMA TRACON (SMA)
07:21PM 38.6656 -90.1472 303° West 170 196 3,100 -780 Descending FAA TRACON SMA TRACON (SMA)
07:22PM 38.6736 -90.1625 304° West 167 192 2,800 -900 Descending FAA TRACON SMA TRACON (SMA)
07:22PM 38.6831 -90.1822 302° West 169 194 2,500 -960 Descending FAA TRACON SMA TRACON (SMA)
07:22PM 38.6908 -90.1975 303° West 168 193 2,200 -900 Descending FAA TRACON SMA TRACON (SMA)
07:23PM 38.6978 -90.2119 302° West 160 184 1,900 -900 Descending FAA TRACON SMA TRACON (SMA)
07:23PM 38.7064 -90.2283 304° West 145 167 1,600 -780 Descending FAA TRACON SMA TRACON (SMA)
07:23PM 38.7122 -90.2408 301° West 134 154 1,400 -600 Descending FAA TRACON SMA TRACON (SMA)
07:24PM 38.7181 -90.2531 301° West 132 152 1,200 -780 Descending FAA TRACON SMA TRACON (SMA)
07:24PM 38.7258 -90.2683 303° West 132 152 900 -780 Descending FAA TRACON SMA TRACON (SMA)
07:24PM 38.7317 -90.2800 303° West 130 150 700 -660 Descending FAA TRACON SMA TRACON (SMA)